sensor_id;sensor_type;location;lat;lon;timestamp;pressure;altitude;pressure_sealevel;temperature;humidity
38054;BME280;23859;50.672;7.164;2022-07-29T00:00:47;100620.97;;;19.49;68.32
38054;BME280;23859;50.672;7.164;2022-07-29T00:03:14;100627.38;;;19.48;68.89
38054;BME280;23859;50.672;7.164;2022-07-29T00:05:41;100623.75;;;19.83;67.58
38054;BME280;23859;50.672;7.164;2022-07-29T00:08:08;100626.44;;;20.04;66.84
38054;BME280;23859;50.672;7.164;2022-07-29T00:10:35;100633.91;;;19.81;66.65
38054;BME280;23859;50.672;7.164;2022-07-29T00:13:01;100629.25;;;19.68;66.75
38054;BME280;23859;50.672;7.164;2022-07-29T00:15:27;100636.25;;;19.63;67.68
38054;BME280;23859;50.672;7.164;2022-07-29T00:17:53;100639.44;;;19.52;67.71
38054;BME280;23859;50.672;7.164;2022-07-29T00:20:20;100630.44;;;19.45;67.96
38054;BME280;23859;50.672;7.164;2022-07-29T00:22:46;100629.31;;;19.54;69.30
38054;BME280;23859;50.672;7.164;2022-07-29T00:25:12;100624.94;;;19.53;69.53
38054;BME280;23859;50.672;7.164;2022-07-29T00:27:38;100619.69;;;19.66;68.97
38054;BME280;23859;50.672;7.164;2022-07-29T00:30:06;100623.53;;;19.57;68.85
38054;BME280;23859;50.672;7.164;2022-07-29T00:32:32;100617.88;;;19.52;69.15
38054;BME280;23859;50.672;7.164;2022-07-29T00:34:59;100619.88;;;19.43;68.78
38054;BME280;23859;50.672;7.164;2022-07-29T00:37:43;100618.06;;;19.30;69.36
38054;BME280;23859;50.672;7.164;2022-07-29T00:40:10;100610.53;;;19.25;70.18
38054;BME280;23859;50.672;7.164;2022-07-29T00:42:46;100610.03;;;19.15;70.58
38054;BME280;23859;50.672;7.164;2022-07-29T00:45:13;100603.97;;;19.13;70.47
38054;BME280;23859;50.672;7.164;2022-07-29T00:47:40;100583.94;;;19.01;70.88
38054;BME280;23859;50.672;7.164;2022-07-29T00:50:08;100605.66;;;19.14;70.46
38054;BME280;23859;50.672;7.164;2022-07-29T00:52:36;100594.31;;;19.19;69.88
38054;BME280;23859;50.672;7.164;2022-07-29T00:55:05;100594.88;;;19.14;70.04
38054;BME280;23859;50.672;7.164;2022-07-29T00:57:32;100590.91;;;19.10;70.84
38054;BME280;23859;50.672;7.164;2022-07-29T00:59:59;100593.09;;;19.07;70.91
38054;BME280;23859;50.672;7.164;2022-07-29T01:02:25;100583.53;;;19.04;70.81
38054;BME280;23859;50.672;7.164;2022-07-29T01:04:51;100580.41;;;19.01;70.86
38054;BME280;23859;50.672;7.164;2022-07-29T01:07:18;100578.19;;;18.90;71.01
38054;BME280;23859;50.672;7.164;2022-07-29T01:09:45;100577.31;;;18.83;71.01
38054;BME280;23859;50.672;7.164;2022-07-29T01:12:13;100572.50;;;18.99;70.51
38054;BME280;23859;50.672;7.164;2022-07-29T01:14:41;100573.97;;;19.16;70.13
38054;BME280;23859;50.672;7.164;2022-07-29T01:17:22;100572.19;;;19.44;68.51
38054;BME280;23859;50.672;7.164;2022-07-29T01:20:16;100562.88;;;19.46;67.94
38054;BME280;23859;50.672;7.164;2022-07-29T01:26:04;100562.19;;;19.03;70.52
38054;BME280;23859;50.672;7.164;2022-07-29T01:34:02;100558.13;;;18.92;68.87
38054;BME280;23859;50.672;7.164;2022-07-29T01:36:37;100561.91;;;18.77;69.12
38054;BME280;23859;50.672;7.164;2022-07-29T01:42:38;100561.13;;;18.48;71.64
38054;BME280;23859;50.672;7.164;2022-07-29T01:47:28;100561.38;;;18.53;72.12
38054;BME280;23859;50.672;7.164;2022-07-29T01:49:57;100560.06;;;18.49;73.39
38054;BME280;23859;50.672;7.164;2022-07-29T01:52:52;100549.03;;;18.44;73.21
38054;BME280;23859;50.672;7.164;2022-07-29T01:55:22;100542.09;;;18.35;72.74
38054;BME280;23859;50.672;7.164;2022-07-29T01:57:50;100543.84;;;18.28;73.14
38054;BME280;23859;50.672;7.164;2022-07-29T02:00:17;100544.44;;;18.23;73.76
38054;BME280;23859;50.672;7.164;2022-07-29T02:02:46;100534.94;;;18.13;73.80
38054;BME280;23859;50.672;7.164;2022-07-29T02:05:15;100535.03;;;18.05;73.54
38054;BME280;23859;50.672;7.164;2022-07-29T02:07:44;100534.38;;;18.03;74.48
38054;BME280;23859;50.672;7.164;2022-07-29T02:10:13;100532.16;;;17.92;75.00
38054;BME280;23859;50.672;7.164;2022-07-29T02:12:41;100526.03;;;17.84;74.79
38054;BME280;23859;50.672;7.164;2022-07-29T02:15:08;100519.88;;;17.75;75.52
38054;BME280;23859;50.672;7.164;2022-07-29T02:17:55;100531.75;;;17.66;76.30
38054;BME280;23859;50.672;7.164;2022-07-29T02:20:23;100540.75;;;17.59;76.11
38054;BME280;23859;50.672;7.164;2022-07-29T02:22:52;100540.00;;;17.65;76.59
38054;BME280;23859;50.672;7.164;2022-07-29T02:25:21;100540.00;;;17.65;75.61
38054;BME280;23859;50.672;7.164;2022-07-29T02:27:50;100536.19;;;17.59;77.10
38054;BME280;23859;50.672;7.164;2022-07-29T02:30:18;100531.53;;;17.53;77.50
38054;BME280;23859;50.672;7.164;2022-07-29T02:32:47;100531.91;;;17.50;77.71
38054;BME280;23859;50.672;7.164;2022-07-29T02:35:15;100534.94;;;17.47;77.00
38054;BME280;23859;50.672;7.164;2022-07-29T02:37:44;100533.25;;;17.83;75.62
38054;BME280;23859;50.672;7.164;2022-07-29T02:40:12;100537.03;;;17.74;76.80
38054;BME280;23859;50.672;7.164;2022-07-29T02:42:42;100543.97;;;17.54;77.10
38054;BME280;23859;50.672;7.164;2022-07-29T02:45:10;100547.09;;;17.43;77.62
38054;BME280;23859;50.672;7.164;2022-07-29T02:47:47;100544.81;;;17.33;78.33
38054;BME280;23859;50.672;7.164;2022-07-29T02:50:20;100548.38;;;17.25;79.12
38054;BME280;23859;50.672;7.164;2022-07-29T02:52:54;100546.59;;;17.18;79.52
38054;BME280;23859;50.672;7.164;2022-07-29T02:55:37;100552.31;;;17.15;79.17
38054;BME280;23859;50.672;7.164;2022-07-29T02:58:25;100545.16;;;17.07;78.84
38054;BME280;23859;50.672;7.164;2022-07-29T03:01:03;100540.50;;;17.01;80.14
38054;BME280;23859;50.672;7.164;2022-07-29T03:03:33;100539.19;;;16.97;79.31
38054;BME280;23859;50.672;7.164;2022-07-29T03:06:01;100536.72;;;16.88;79.44
38054;BME280;23859;50.672;7.164;2022-07-29T03:08:29;100531.44;;;16.80;80.42
38054;BME280;23859;50.672;7.164;2022-07-29T03:10:56;100537.50;;;16.74;80.44
38054;BME280;23859;50.672;7.164;2022-07-29T03:13:23;100539.47;;;16.80;80.93
38054;BME280;23859;50.672;7.164;2022-07-29T03:15:50;100529.56;;;16.80;81.42
38054;BME280;23859;50.672;7.164;2022-07-29T03:18:17;100537.06;;;16.93;80.62
38054;BME280;23859;50.672;7.164;2022-07-29T03:20:43;100526.50;;;17.36;78.38
38054;BME280;23859;50.672;7.164;2022-07-29T03:23:10;100525.19;;;17.69;76.28
38054;BME280;23859;50.672;7.164;2022-07-29T03:25:36;100535.84;;;17.62;76.02
38054;BME280;23859;50.672;7.164;2022-07-29T03:28:02;100528.56;;;17.48;78.01
38054;BME280;23859;50.672;7.164;2022-07-29T03:30:28;100535.03;;;17.39;78.28
38054;BME280;23859;50.672;7.164;2022-07-29T03:32:56;100539.16;;;17.28;80.00
38054;BME280;23859;50.672;7.164;2022-07-29T03:35:23;100546.72;;;17.24;79.81
38054;BME280;23859;50.672;7.164;2022-07-29T03:37:49;100542.03;;;17.26;78.73
38054;BME280;23859;50.672;7.164;2022-07-29T03:40:32;100547.56;;;17.25;77.52
38054;BME280;23859;50.672;7.164;2022-07-29T03:42:59;100547.09;;;17.21;78.27
38054;BME280;23859;50.672;7.164;2022-07-29T03:45:29;100549.47;;;17.16;77.86
38054;BME280;23859;50.672;7.164;2022-07-29T03:48:02;100537.81;;;17.24;77.88
38054;BME280;23859;50.672;7.164;2022-07-29T03:50:32;100547.09;;;17.43;77.56
38054;BME280;23859;50.672;7.164;2022-07-29T03:53:00;100546.50;;;17.34;77.34
38054;BME280;23859;50.672;7.164;2022-07-29T03:55:29;100546.22;;;17.65;76.12
38054;BME280;23859;50.672;7.164;2022-07-29T03:57:58;100550.31;;;17.39;77.03
38054;BME280;23859;50.672;7.164;2022-07-29T04:00:26;100549.25;;;17.26;76.78
38054;BME280;23859;50.672;7.164;2022-07-29T04:02:52;100540.84;;;17.21;77.15
38054;BME280;23859;50.672;7.164;2022-07-29T04:05:19;100547.09;;;17.21;77.72
38054;BME280;23859;50.672;7.164;2022-07-29T04:07:48;100549.13;;;17.78;74.66
38054;BME280;23859;50.672;7.164;2022-07-29T04:10:15;100551.81;;;17.78;75.02
38054;BME280;23859;50.672;7.164;2022-07-29T04:12:42;100551.81;;;18.07;73.20
38054;BME280;23859;50.672;7.164;2022-07-29T04:15:09;100555.50;;;17.77;74.53
38054;BME280;23859;50.672;7.164;2022-07-29T04:17:35;100556.69;;;17.60;76.36
38054;BME280;23859;50.672;7.164;2022-07-29T04:20:01;100559.13;;;17.47;76.63
38054;BME280;23859;50.672;7.164;2022-07-29T04:22:28;100558.50;;;17.45;76.73
38054;BME280;23859;50.672;7.164;2022-07-29T04:24:54;100559.84;;;17.41;76.24
38054;BME280;23859;50.672;7.164;2022-07-29T04:27:20;100564.94;;;17.36;77.31
38054;BME280;23859;50.672;7.164;2022-07-29T04:29:46;100567.81;;;17.35;77.07
38054;BME280;23859;50.672;7.164;2022-07-29T04:32:12;100565.97;;;17.36;77.28
38054;BME280;23859;50.672;7.164;2022-07-29T04:34:38;100581.81;;;17.67;76.26
38054;BME280;23859;50.672;7.164;2022-07-29T04:37:04;100566.53;;;17.82;75.27
38054;BME280;23859;50.672;7.164;2022-07-29T04:39:30;100582.66;;;17.68;76.81
38054;BME280;23859;50.672;7.164;2022-07-29T04:41:57;100571.03;;;17.53;76.92
38054;BME280;23859;50.672;7.164;2022-07-29T04:44:23;100570.84;;;17.54;76.80
38054;BME280;23859;50.672;7.164;2022-07-29T04:46:49;100580.34;;;17.79;76.25
38054;BME280;23859;50.672;7.164;2022-07-29T04:49:15;100579.66;;;18.14;74.48
38054;BME280;23859;50.672;7.164;2022-07-29T04:51:41;100569.72;;;18.14;73.95
38054;BME280;23859;50.672;7.164;2022-07-29T04:54:07;100582.34;;;18.14;75.97
38054;BME280;23859;50.672;7.164;2022-07-29T04:56:33;100577.97;;;18.13;75.99
38054;BME280;23859;50.672;7.164;2022-07-29T04:58:59;100585.50;;;18.17;75.51
38054;BME280;23859;50.672;7.164;2022-07-29T05:01:25;100584.34;;;18.20;74.62
38054;BME280;23859;50.672;7.164;2022-07-29T05:03:51;100596.66;;;18.29;74.43
38054;BME280;23859;50.672;7.164;2022-07-29T05:06:17;100604.09;;;18.41;73.67
38054;BME280;23859;50.672;7.164;2022-07-29T05:08:43;100604.75;;;18.58;74.11
38054;BME280;23859;50.672;7.164;2022-07-29T05:11:10;100598.66;;;18.84;71.80
38054;BME280;23859;50.672;7.164;2022-07-29T05:13:36;100604.09;;;19.05;70.92
38054;BME280;23859;50.672;7.164;2022-07-29T05:16:02;100608.09;;;19.30;69.80
38054;BME280;23859;50.672;7.164;2022-07-29T05:18:28;100609.78;;;19.31;69.21
38054;BME280;23859;50.672;7.164;2022-07-29T05:20:54;100600.28;;;19.35;66.20
38054;BME280;23859;50.672;7.164;2022-07-29T05:23:20;100610.59;;;19.32;66.90
38054;BME280;23859;50.672;7.164;2022-07-29T05:25:46;100613.56;;;19.37;66.45
38054;BME280;23859;50.672;7.164;2022-07-29T05:28:13;100603.06;;;19.62;66.51
38054;BME280;23859;50.672;7.164;2022-07-29T05:30:39;100603.66;;;19.64;66.87
38054;BME280;23859;50.672;7.164;2022-07-29T05:33:05;100610.22;;;19.97;65.14
38054;BME280;23859;50.672;7.164;2022-07-29T05:35:31;100608.16;;;19.78;66.72
38054;BME280;23859;50.672;7.164;2022-07-29T05:37:57;100616.31;;;19.85;66.84
38054;BME280;23859;50.672;7.164;2022-07-29T05:40:23;100622.78;;;19.90;66.38
38054;BME280;23859;50.672;7.164;2022-07-29T05:42:49;100624.81;;;19.82;66.24
38054;BME280;23859;50.672;7.164;2022-07-29T05:45:15;100636.09;;;19.92;66.33
38054;BME280;23859;50.672;7.164;2022-07-29T05:47:41;100640.59;;;20.06;64.81
38054;BME280;23859;50.672;7.164;2022-07-29T05:50:07;100646.84;;;20.06;64.94
38054;BME280;23859;50.672;7.164;2022-07-29T05:52:34;100643.50;;;20.04;65.94
38054;BME280;23859;50.672;7.164;2022-07-29T05:55:00;100645.63;;;20.08;64.95
38054;BME280;23859;50.672;7.164;2022-07-29T05:57:30;100654.66;;;20.22;64.78
38054;BME280;23859;50.672;7.164;2022-07-29T05:59:56;100654.09;;;20.33;64.63
38054;BME280;23859;50.672;7.164;2022-07-29T06:02:22;100662.44;;;20.38;64.05
38054;BME280;23859;50.672;7.164;2022-07-29T06:04:48;100665.94;;;19.90;64.19
38054;BME280;23859;50.672;7.164;2022-07-29T06:07:15;100671.63;;;20.16;64.66
38054;BME280;23859;50.672;7.164;2022-07-29T06:09:42;100669.91;;;20.08;63.84
38054;BME280;23859;50.672;7.164;2022-07-29T06:12:08;100675.47;;;20.07;64.91
38054;BME280;23859;50.672;7.164;2022-07-29T06:14:35;100677.22;;;20.42;64.27
38054;BME280;23859;50.672;7.164;2022-07-29T06:17:01;100678.28;;;19.93;64.07
38054;BME280;23859;50.672;7.164;2022-07-29T06:19:27;100667.34;;;20.62;63.16
38054;BME280;23859;50.672;7.164;2022-07-29T06:21:53;100671.41;;;21.19;61.35
38054;BME280;23859;50.672;7.164;2022-07-29T06:24:19;100677.13;;;21.43;60.10
38054;BME280;23859;50.672;7.164;2022-07-29T06:26:45;100679.09;;;21.81;58.30
38054;BME280;23859;50.672;7.164;2022-07-29T06:29:12;100675.75;;;21.66;59.08
38054;BME280;23859;50.672;7.164;2022-07-29T06:31:38;100672.59;;;21.63;58.58
38054;BME280;23859;50.672;7.164;2022-07-29T06:34:05;100672.81;;;21.61;58.76
38054;BME280;23859;50.672;7.164;2022-07-29T06:36:34;100675.97;;;21.78;57.96
38054;BME280;23859;50.672;7.164;2022-07-29T06:39:00;100669.75;;;21.97;58.17
38054;BME280;23859;50.672;7.164;2022-07-29T06:41:26;100669.13;;;22.01;58.06
38054;BME280;23859;50.672;7.164;2022-07-29T06:43:52;100666.22;;;22.03;56.72
38054;BME280;23859;50.672;7.164;2022-07-29T06:46:19;100662.03;;;22.00;56.33
38054;BME280;23859;50.672;7.164;2022-07-29T06:48:45;100672.66;;;21.95;57.67
38054;BME280;23859;50.672;7.164;2022-07-29T06:51:12;100676.63;;;21.99;56.19
38054;BME280;23859;50.672;7.164;2022-07-29T06:53:39;100672.25;;;21.98;55.80
38054;BME280;23859;50.672;7.164;2022-07-29T06:56:06;100673.91;;;21.99;56.46
38054;BME280;23859;50.672;7.164;2022-07-29T06:58:35;100671.59;;;22.15;56.06
38054;BME280;23859;50.672;7.164;2022-07-29T07:01:03;100668.72;;;22.43;55.11
38054;BME280;23859;50.672;7.164;2022-07-29T07:03:30;100666.22;;;22.41;55.75
38054;BME280;23859;50.672;7.164;2022-07-29T07:05:57;100662.41;;;22.68;54.11
38054;BME280;23859;50.672;7.164;2022-07-29T07:08:23;100674.34;;;22.35;53.99
38054;BME280;23859;50.672;7.164;2022-07-29T07:10:53;100668.28;;;22.26;54.54
38054;BME280;23859;50.672;7.164;2022-07-29T07:13:20;100573.13;;;21.65;54.29
38054;BME280;23859;50.672;7.164;2022-07-29T07:15:47;100668.28;;;22.46;53.59
38054;BME280;23859;50.672;7.164;2022-07-29T07:18:15;100669.94;;;22.60;53.78
38054;BME280;23859;50.672;7.164;2022-07-29T07:20:42;100665.69;;;22.89;53.80
38054;BME280;23859;50.672;7.164;2022-07-29T07:23:08;100662.53;;;23.05;52.22
38054;BME280;23859;50.672;7.164;2022-07-29T07:25:34;100661.22;;;23.14;52.18
38054;BME280;23859;50.672;7.164;2022-07-29T07:28:00;100660.13;;;23.28;52.30
38054;BME280;23859;50.672;7.164;2022-07-29T07:30:27;100663.34;;;23.06;52.23
38054;BME280;23859;50.672;7.164;2022-07-29T07:32:53;100655.97;;;23.26;51.83
38054;BME280;23859;50.672;7.164;2022-07-29T07:35:19;100660.25;;;23.02;51.77
38054;BME280;23859;50.672;7.164;2022-07-29T07:37:45;100656.56;;;23.34;50.53
38054;BME280;23859;50.672;7.164;2022-07-29T07:40:12;100663.06;;;24.85;47.52
38054;BME280;23859;50.672;7.164;2022-07-29T07:42:41;100657.38;;;25.05;46.54
38054;BME280;23859;50.672;7.164;2022-07-29T07:45:08;100652.50;;;26.92;43.15
38054;BME280;23859;50.672;7.164;2022-07-29T07:47:36;100656.44;;;26.74;41.64
38054;BME280;23859;50.672;7.164;2022-07-29T07:50:05;100649.72;;;29.97;37.28
38054;BME280;23859;50.672;7.164;2022-07-29T07:52:32;100653.13;;;31.43;34.53
38054;BME280;23859;50.672;7.164;2022-07-29T07:54:59;100654.69;;;32.25;33.06
38054;BME280;23859;50.672;7.164;2022-07-29T07:57:25;100660.59;;;33.16;31.25
38054;BME280;23859;50.672;7.164;2022-07-29T07:59:51;100660.91;;;34.11;29.65
38054;BME280;23859;50.672;7.164;2022-07-29T08:02:17;100654.94;;;34.89;29.70
38054;BME280;23859;50.672;7.164;2022-07-29T08:04:43;100656.41;;;34.81;28.71
38054;BME280;23859;50.672;7.164;2022-07-29T08:07:10;100663.78;;;33.43;30.27
38054;BME280;23859;50.672;7.164;2022-07-29T08:09:36;100661.88;;;29.11;36.05
38054;BME280;23859;50.672;7.164;2022-07-29T08:12:02;100654.16;;;29.08;35.91
38054;BME280;23859;50.672;7.164;2022-07-29T08:14:30;100666.78;;;26.49;40.98
38054;BME280;23859;50.672;7.164;2022-07-29T08:16:56;100663.38;;;27.15;41.19
38054;BME280;23859;50.672;7.164;2022-07-29T08:19:22;100657.56;;;27.79;40.03
38054;BME280;23859;50.672;7.164;2022-07-29T08:21:48;100656.72;;;27.51;39.49
38054;BME280;23859;50.672;7.164;2022-07-29T08:24:14;100669.03;;;25.59;42.16
38054;BME280;23859;50.672;7.164;2022-07-29T08:26:59;100661.53;;;25.72;43.21
38054;BME280;23859;50.672;7.164;2022-07-29T08:29:25;100656.31;;;26.69;41.02
38054;BME280;23859;50.672;7.164;2022-07-29T08:31:51;100646.00;;;26.59;41.04
38054;BME280;23859;50.672;7.164;2022-07-29T08:34:17;100647.47;;;27.12;40.48
38054;BME280;23859;50.672;7.164;2022-07-29T08:36:43;100642.16;;;26.94;40.53
38054;BME280;23859;50.672;7.164;2022-07-29T08:39:09;100652.69;;;25.88;43.21
38054;BME280;23859;50.672;7.164;2022-07-29T08:41:36;100654.59;;;25.58;43.24
38054;BME280;23859;50.672;7.164;2022-07-29T08:44:02;100648.69;;;26.02;42.27
38054;BME280;23859;50.672;7.164;2022-07-29T08:46:28;100638.16;;;26.17;41.14
38054;BME280;23859;50.672;7.164;2022-07-29T08:48:55;100638.19;;;25.76;41.21
38054;BME280;23859;50.672;7.164;2022-07-29T08:51:22;100645.06;;;24.84;43.11
38054;BME280;23859;50.672;7.164;2022-07-29T08:53:50;100646.66;;;25.10;43.95
38054;BME280;23859;50.672;7.164;2022-07-29T08:56:18;100646.72;;;25.21;42.95
38054;BME280;23859;50.672;7.164;2022-07-29T08:58:45;100645.16;;;25.14;42.37
38054;BME280;23859;50.672;7.164;2022-07-29T09:01:16;100638.63;;;25.62;41.69
38054;BME280;23859;50.672;7.164;2022-07-29T09:03:44;100637.19;;;25.59;41.18
38054;BME280;23859;50.672;7.164;2022-07-29T09:06:14;100641.09;;;25.34;42.63
38054;BME280;23859;50.672;7.164;2022-07-29T09:08:40;100638.56;;;25.51;41.58
38054;BME280;23859;50.672;7.164;2022-07-29T09:11:07;100635.81;;;25.39;42.07
38054;BME280;23859;50.672;7.164;2022-07-29T09:13:34;100633.06;;;25.68;41.17
38054;BME280;23859;50.672;7.164;2022-07-29T09:16:00;100627.94;;;26.13;41.67
38054;BME280;23859;50.672;7.164;2022-07-29T09:21:03;100633.50;;;26.86;39.73
38054;BME280;23859;50.672;7.164;2022-07-29T09:24:12;100635.44;;;26.74;39.62
38054;BME280;23859;50.672;7.164;2022-07-29T09:26:44;100635.66;;;27.62;38.76
38054;BME280;23859;50.672;7.164;2022-07-29T09:29:12;100625.41;;;28.51;36.01
38054;BME280;23859;50.672;7.164;2022-07-29T09:31:42;100625.19;;;29.12;35.68
38054;BME280;23859;50.672;7.164;2022-07-29T09:34:11;100624.19;;;28.26;35.86
38054;BME280;23859;50.672;7.164;2022-07-29T09:36:40;100620.94;;;28.45;35.72
38054;BME280;23859;50.672;7.164;2022-07-29T09:39:06;100615.63;;;28.93;35.57
38054;BME280;23859;50.672;7.164;2022-07-29T09:41:51;100627.53;;;28.28;37.14
38054;BME280;23859;50.672;7.164;2022-07-29T09:44:19;100629.56;;;27.88;38.46
38054;BME280;23859;50.672;7.164;2022-07-29T09:47:02;100625.31;;;27.37;37.47
38054;BME280;23859;50.672;7.164;2022-07-29T09:49:33;100625.25;;;27.48;38.76
38054;BME280;23859;50.672;7.164;2022-07-29T09:52:04;100620.50;;;27.71;38.46
38054;BME280;23859;50.672;7.164;2022-07-29T09:54:30;100624.59;;;28.02;38.09
38054;BME280;23859;50.672;7.164;2022-07-29T09:57:07;100626.22;;;28.52;36.89
38054;BME280;23859;50.672;7.164;2022-07-29T09:59:35;100624.06;;;28.32;36.87
38054;BME280;23859;50.672;7.164;2022-07-29T10:02:01;100611.50;;;28.74;36.80
38054;BME280;23859;50.672;7.164;2022-07-29T10:04:38;100618.91;;;28.20;36.59
38054;BME280;23859;50.672;7.164;2022-07-29T10:07:04;100618.41;;;28.60;37.74
38054;BME280;23859;50.672;7.164;2022-07-29T10:09:32;100611.75;;;28.89;37.18
38054;BME280;23859;50.672;7.164;2022-07-29T10:12:06;100609.44;;;29.02;36.89
38054;BME280;23859;50.672;7.164;2022-07-29T10:14:32;100612.00;;;28.88;36.07
38054;BME280;23859;50.672;7.164;2022-07-29T10:17:03;100612.88;;;28.93;36.65
38054;BME280;23859;50.672;7.164;2022-07-29T10:19:30;100613.00;;;28.27;36.47
38054;BME280;23859;50.672;7.164;2022-07-29T10:21:58;100611.16;;;28.49;37.31
38054;BME280;23859;50.672;7.164;2022-07-29T10:24:29;100615.88;;;28.54;37.04
38054;BME280;23859;50.672;7.164;2022-07-29T10:26:57;100610.84;;;28.29;37.93
38054;BME280;23859;50.672;7.164;2022-07-29T10:29:24;100606.66;;;28.60;37.44
38054;BME280;23859;50.672;7.164;2022-07-29T10:35:19;100605.75;;;28.92;37.26
38054;BME280;23859;50.672;7.164;2022-07-29T10:40:46;100613.75;;;28.39;37.87
38054;BME280;23859;50.672;7.164;2022-07-29T10:43:37;100611.53;;;28.36;37.31
38054;BME280;23859;50.672;7.164;2022-07-29T10:46:07;100612.81;;;28.50;37.78
38054;BME280;23859;50.672;7.164;2022-07-29T10:48:33;100618.75;;;28.80;38.64
38054;BME280;23859;50.672;7.164;2022-07-29T10:51:02;100608.69;;;28.86;37.61
38054;BME280;23859;50.672;7.164;2022-07-29T10:53:51;100608.09;;;29.05;36.58
38054;BME280;23859;50.672;7.164;2022-07-29T10:56:28;100619.50;;;28.22;37.59
38054;BME280;23859;50.672;7.164;2022-07-29T11:01:46;100613.88;;;28.49;38.34
38054;BME280;23859;50.672;7.164;2022-07-29T11:04:12;100606.59;;;28.38;38.39
38054;BME280;23859;50.672;7.164;2022-07-29T11:09:25;100615.69;;;28.60;38.85
38054;BME280;23859;50.672;7.164;2022-07-29T11:11:51;100610.00;;;29.26;37.36
38054;BME280;23859;50.672;7.164;2022-07-29T11:15:03;100610.25;;;29.24;37.87
38054;BME280;23859;50.672;7.164;2022-07-29T11:17:05;100611.06;;;28.44;37.57
38054;BME280;23859;50.672;7.164;2022-07-29T11:19:32;100609.81;;;28.90;38.55
38054;BME280;23859;50.672;7.164;2022-07-29T11:21:59;100607.13;;;29.37;37.30
38054;BME280;23859;50.672;7.164;2022-07-29T11:24:27;100614.72;;;29.09;36.48
38054;BME280;23859;50.672;7.164;2022-07-29T11:27:11;100611.84;;;29.42;36.50
38054;BME280;23859;50.672;7.164;2022-07-29T11:32:18;100602.25;;;29.18;37.82
38054;BME280;23859;50.672;7.164;2022-07-29T11:34:46;100605.88;;;29.02;36.87
38054;BME280;23859;50.672;7.164;2022-07-29T11:37:13;100602.59;;;29.74;36.34
38054;BME280;23859;50.672;7.164;2022-07-29T11:45:01;100596.06;;;33.70;31.50
38054;BME280;23859;50.672;7.164;2022-07-29T11:47:31;100601.66;;;33.93;30.63
38054;BME280;23859;50.672;7.164;2022-07-29T11:49:58;100604.00;;;32.41;32.09
38054;BME280;23859;50.672;7.164;2022-07-29T11:52:42;100593.84;;;33.67;30.69
38054;BME280;23859;50.672;7.164;2022-07-29T11:55:18;100605.13;;;32.54;32.02
38054;BME280;23859;50.672;7.164;2022-07-29T11:57:46;100606.72;;;31.61;33.82
38054;BME280;23859;50.672;7.164;2022-07-29T12:02:57;100597.75;;;30.17;35.82
38054;BME280;23859;50.672;7.164;2022-07-29T12:05:49;100604.44;;;29.68;36.48
38054;BME280;23859;50.672;7.164;2022-07-29T12:08:18;100606.56;;;29.14;37.44
38054;BME280;23859;50.672;7.164;2022-07-29T12:10:46;100612.63;;;29.16;37.84
38054;BME280;23859;50.672;7.164;2022-07-29T12:13:14;100608.59;;;28.59;38.79
38054;BME280;23859;50.672;7.164;2022-07-29T12:15:41;100612.13;;;28.60;39.43
38054;BME280;23859;50.672;7.164;2022-07-29T12:18:15;100605.97;;;28.69;39.03
38054;BME280;23859;50.672;7.164;2022-07-29T12:20:41;100611.84;;;28.24;39.36
38054;BME280;23859;50.672;7.164;2022-07-29T12:23:08;100605.53;;;28.39;39.45
38054;BME280;23859;50.672;7.164;2022-07-29T12:25:37;100618.47;;;28.27;39.70
38054;BME280;23859;50.672;7.164;2022-07-29T12:28:06;100610.28;;;28.27;39.35
38054;BME280;23859;50.672;7.164;2022-07-29T12:30:40;100609.13;;;28.61;39.94
38054;BME280;23859;50.672;7.164;2022-07-29T12:33:20;100605.06;;;28.80;38.70
38054;BME280;23859;50.672;7.164;2022-07-29T12:35:56;100599.31;;;29.03;38.39
38054;BME280;23859;50.672;7.164;2022-07-29T12:38:23;100608.22;;;29.15;38.05
38054;BME280;23859;50.672;7.164;2022-07-29T12:40:52;100611.59;;;29.22;37.66
38054;BME280;23859;50.672;7.164;2022-07-29T12:43:23;100614.97;;;29.29;37.36
38054;BME280;23859;50.672;7.164;2022-07-29T12:45:52;100602.44;;;29.33;37.14
38054;BME280;23859;50.672;7.164;2022-07-29T12:48:35;100610.31;;;29.08;36.39
38054;BME280;23859;50.672;7.164;2022-07-29T12:51:03;100606.88;;;29.17;36.99
38054;BME280;23859;50.672;7.164;2022-07-29T12:53:30;100601.09;;;29.35;36.34
38054;BME280;23859;50.672;7.164;2022-07-29T12:55:57;100598.44;;;29.24;36.68
38054;BME280;23859;50.672;7.164;2022-07-29T12:58:29;100600.19;;;28.87;36.39
38054;BME280;23859;50.672;7.164;2022-07-29T13:01:05;100591.06;;;28.60;37.25
38054;BME280;23859;50.672;7.164;2022-07-29T13:03:54;100589.00;;;28.89;37.83
38054;BME280;23859;50.672;7.164;2022-07-29T13:06:43;100588.59;;;29.01;37.97
38054;BME280;23859;50.672;7.164;2022-07-29T13:09:19;100592.31;;;29.12;37.25
38054;BME280;23859;50.672;7.164;2022-07-29T13:11:50;100589.72;;;29.27;36.44
38054;BME280;23859;50.672;7.164;2022-07-29T13:14:37;100590.66;;;29.11;36.92
38054;BME280;23859;50.672;7.164;2022-07-29T13:20:04;100593.78;;;28.77;37.84
38054;BME280;23859;50.672;7.164;2022-07-29T13:22:31;100581.81;;;28.66;37.32
38054;BME280;23859;50.672;7.164;2022-07-29T13:25:00;100589.25;;;28.49;38.50
38054;BME280;23859;50.672;7.164;2022-07-29T13:27:29;100598.91;;;28.03;38.32
38054;BME280;23859;50.672;7.164;2022-07-29T13:29:57;100598.09;;;28.19;38.25
38054;BME280;23859;50.672;7.164;2022-07-29T13:32:26;100593.59;;;28.45;38.23
38054;BME280;23859;50.672;7.164;2022-07-29T13:34:52;100584.22;;;28.79;38.51
38054;BME280;23859;50.672;7.164;2022-07-29T13:37:19;100598.75;;;29.01;37.81
38054;BME280;23859;50.672;7.164;2022-07-29T13:39:45;100579.69;;;29.11;37.54
38054;BME280;23859;50.672;7.164;2022-07-29T13:42:13;100594.06;;;29.23;36.99